createdAt,value
2023-07-23T00:01:42.421Z,4.00
2023-07-23T00:04:09.222Z,3.78
2023-07-23T00:06:36.106Z,3.83
2023-07-23T00:09:04.446Z,3.65
2023-07-23T00:11:31.247Z,3.65
2023-07-23T00:13:57.976Z,3.63
2023-07-23T00:16:24.982Z,3.83
2023-07-23T00:18:51.771Z,3.97
2023-07-23T00:21:18.528Z,3.53
2023-07-23T00:23:45.215Z,3.53
2023-07-23T00:26:11.923Z,4.00
2023-07-23T00:28:38.664Z,3.70
2023-07-23T00:31:05.512Z,3.35
2023-07-23T00:33:32.273Z,3.85
2023-07-23T00:35:58.957Z,3.97
2023-07-23T00:38:25.797Z,3.80
2023-07-23T00:40:53.771Z,3.67
2023-07-23T00:43:20.515Z,3.90
2023-07-23T00:45:47.346Z,3.40
2023-07-23T00:48:14.251Z,3.80
2023-07-23T00:50:41.065Z,3.63
2023-07-23T00:53:07.897Z,3.70
2023-07-23T00:55:34.736Z,3.95
2023-07-23T00:58:01.528Z,3.78
2023-07-23T01:00:28.273Z,3.60
2023-07-23T01:02:55.093Z,3.53
2023-07-23T01:05:21.842Z,3.58
2023-07-23T01:07:48.613Z,3.70
2023-07-23T01:10:15.309Z,4.07
2023-07-23T01:12:42.102Z,3.38
2023-07-23T01:15:09.450Z,3.30
2023-07-23T01:17:37.225Z,3.50
2023-07-23T01:20:06.498Z,3.70
2023-07-23T01:22:34.490Z,4.05
2023-07-23T01:25:01.331Z,3.72
2023-07-23T01:27:28.089Z,3.80
2023-07-23T01:29:54.858Z,3.88
2023-07-23T01:32:21.683Z,3.80
2023-07-23T01:34:48.611Z,4.10
2023-07-23T01:37:15.793Z,4.10
2023-07-23T01:39:43.610Z,4.03
2023-07-23T01:42:13.415Z,3.78
2023-07-23T01:44:40.198Z,4.00
2023-07-23T01:47:07.033Z,3.80
2023-07-23T01:49:33.831Z,4.15
2023-07-23T01:52:00.625Z,3.80
2023-07-23T01:54:27.402Z,4.22
2023-07-23T01:56:54.805Z,4.20
2023-07-23T01:59:21.531Z,3.80
2023-07-23T02:01:48.361Z,3.97
2023-07-23T02:04:15.210Z,3.90
2023-07-23T02:06:41.934Z,4.30
2023-07-23T02:09:08.672Z,3.55
2023-07-23T02:11:35.456Z,4.22
2023-07-23T02:14:02.251Z,4.50
2023-07-23T02:16:29.016Z,4.47
2023-07-23T02:18:56.919Z,4.22
2023-07-23T02:21:23.749Z,4.07
2023-07-23T02:23:50.514Z,4.20
2023-07-23T02:26:17.276Z,4.53
2023-07-23T02:28:45.144Z,4.13
2023-07-23T02:31:12.213Z,4.40
2023-07-23T02:33:39.102Z,4.50
2023-07-23T02:36:05.998Z,4.32
2023-07-23T02:38:32.824Z,4.32
2023-07-23T02:41:00.073Z,4.50
2023-07-23T02:43:26.847Z,4.07
2023-07-23T02:45:53.841Z,4.50
2023-07-23T02:48:20.637Z,4.40
2023-07-23T02:50:47.406Z,4.20
2023-07-23T02:53:14.442Z,4.17
2023-07-23T02:55:41.252Z,4.63
2023-07-23T02:58:08.004Z,4.57
2023-07-23T03:00:34.878Z,4.65
2023-07-23T03:03:01.869Z,4.93
2023-07-23T03:05:28.773Z,4.80
2023-07-23T03:07:55.654Z,4.80
2023-07-23T03:10:22.540Z,5.07
2023-07-23T03:12:49.350Z,5.18
2023-07-23T03:15:16.088Z,4.45
2023-07-23T03:17:42.842Z,4.67
2023-07-23T03:20:12.211Z,4.20
2023-07-23T03:22:41.930Z,4.88
2023-07-23T03:25:08.971Z,5.25
2023-07-23T03:27:35.762Z,5.10
2023-07-23T03:30:04.229Z,5.73
2023-07-23T03:32:31.092Z,5.57
2023-07-23T03:34:57.916Z,5.00
2023-07-23T03:37:24.672Z,5.43
2023-07-23T03:39:51.518Z,5.45
2023-07-23T03:42:18.412Z,4.93
2023-07-23T03:44:45.212Z,5.45
2023-07-23T03:47:19.790Z,5.55
2023-07-23T03:49:47.176Z,6.85
2023-07-23T03:52:13.994Z,6.20
2023-07-23T03:54:40.766Z,5.57
2023-07-23T03:57:07.727Z,6.35
2023-07-23T03:59:42.379Z,5.82
2023-07-23T04:02:09.454Z,6.35
2023-07-23T04:04:38.284Z,5.80
2023-07-23T04:07:05.526Z,5.93
2023-07-23T04:09:32.391Z,6.15
2023-07-23T04:11:59.299Z,6.10
2023-07-23T04:14:26.320Z,6.40
2023-07-23T04:16:53.937Z,6.45
2023-07-23T04:19:20.698Z,6.50
2023-07-23T04:21:47.450Z,6.68
2023-07-23T04:24:14.207Z,6.57
2023-07-23T04:26:41.007Z,6.68
2023-07-23T04:29:09.365Z,7.30
2023-07-23T04:31:36.453Z,6.93
2023-07-23T04:34:03.307Z,7.03
2023-07-23T04:36:30.178Z,6.75
2023-07-23T04:38:56.949Z,7.63
2023-07-23T04:41:23.759Z,7.90
2023-07-23T04:43:50.602Z,7.23
2023-07-23T04:46:17.478Z,8.20
2023-07-23T04:48:44.292Z,7.22
2023-07-23T04:51:11.104Z,7.25
2023-07-23T04:53:37.970Z,7.45
2023-07-23T04:56:05.607Z,7.80
2023-07-23T04:58:32.790Z,7.35
2023-07-23T05:01:00.903Z,6.82
2023-07-23T05:03:27.936Z,7.45
2023-07-23T05:05:56.075Z,7.47
2023-07-23T05:08:23.910Z,6.97
2023-07-23T05:10:50.862Z,7.80
2023-07-23T05:13:17.621Z,7.63
2023-07-23T05:15:44.491Z,7.50
2023-07-23T05:18:11.301Z,6.82
2023-07-23T05:20:38.138Z,6.70
2023-07-23T05:23:05.136Z,8.18
2023-07-23T05:25:31.878Z,7.05
2023-07-23T05:27:58.664Z,7.35
2023-07-23T05:30:25.381Z,6.93
2023-07-23T05:32:52.197Z,7.90
2023-07-23T05:35:19.008Z,7.75
2023-07-23T05:37:45.740Z,7.60
2023-07-23T05:40:12.624Z,7.75
2023-07-23T05:42:39.369Z,7.40
2023-07-23T05:45:06.728Z,7.53
2023-07-23T05:47:33.523Z,7.22
2023-07-23T05:50:00.280Z,7.70
2023-07-23T05:52:27.266Z,7.72
2023-07-23T05:54:54.012Z,8.05
2023-07-23T05:57:20.803Z,7.37
2023-07-23T05:59:47.528Z,7.80
2023-07-23T06:02:14.291Z,7.82
2023-07-23T06:04:41.220Z,7.55
2023-07-23T06:07:08.024Z,7.43
2023-07-23T06:09:34.835Z,7.80
2023-07-23T06:12:01.580Z,6.97
2023-07-23T06:14:28.389Z,6.78
2023-07-23T06:16:55.670Z,6.63
2023-07-23T06:19:22.526Z,6.60
2023-07-23T06:21:49.314Z,6.97
2023-07-23T06:24:16.142Z,6.32
2023-07-23T06:26:42.876Z,6.70
2023-07-23T06:29:10.097Z,7.13
2023-07-23T06:31:36.835Z,6.47
2023-07-23T06:34:03.632Z,6.40
2023-07-23T06:36:30.505Z,6.60
2023-07-23T06:38:57.215Z,6.50
2023-07-23T06:41:24.084Z,5.95
2023-07-23T06:43:50.817Z,5.93
2023-07-23T06:46:21.409Z,6.00
2023-07-23T06:48:48.823Z,6.40
2023-07-23T06:51:15.643Z,6.97
2023-07-23T06:53:44.152Z,6.53
2023-07-23T06:56:10.964Z,6.32
2023-07-23T06:58:38.757Z,6.20
2023-07-23T07:01:06.724Z,5.80
2023-07-23T07:03:33.898Z,5.80
2023-07-23T07:06:00.964Z,6.25
2023-07-23T07:08:28.367Z,6.40
2023-07-23T07:11:02.325Z,5.60
2023-07-23T07:13:29.710Z,5.43
2023-07-23T07:15:56.520Z,6.45
2023-07-23T07:18:23.526Z,7.05
2023-07-23T07:20:59.180Z,6.25
2023-07-23T07:23:26.807Z,5.63
2023-07-23T07:25:55.605Z,5.95
2023-07-23T07:28:22.423Z,6.07
2023-07-23T07:30:49.166Z,6.00
2023-07-23T07:33:16.083Z,5.65
2023-07-23T07:35:44.441Z,5.73
2023-07-23T07:38:11.249Z,6.10
2023-07-23T07:40:41.329Z,5.28
2023-07-23T07:43:08.027Z,5.60
2023-07-23T07:45:34.864Z,5.38
2023-07-23T07:48:01.736Z,5.77
2023-07-23T07:50:28.765Z,5.60
2023-07-23T07:52:55.496Z,5.35
2023-07-23T07:55:22.237Z,5.22
2023-07-23T07:57:49.517Z,5.60
2023-07-23T08:00:16.499Z,5.27
2023-07-23T08:02:43.548Z,5.40
2023-07-23T08:05:11.209Z,5.75
2023-07-23T08:07:38.171Z,5.70
2023-07-23T08:10:05.518Z,5.50
2023-07-23T08:12:32.317Z,6.07
2023-07-23T08:14:59.110Z,6.10
2023-07-23T08:17:26.013Z,5.97
2023-07-23T08:19:52.954Z,6.50
2023-07-23T08:22:19.778Z,6.85
2023-07-23T08:24:46.768Z,6.40
2023-07-23T08:27:13.988Z,6.57
2023-07-23T08:29:41.198Z,6.47
2023-07-23T08:32:09.725Z,7.03
2023-07-23T08:34:36.945Z,7.30
2023-07-23T08:37:05.177Z,6.80
2023-07-23T08:39:32.284Z,6.07
2023-07-23T08:42:01.827Z,6.30
2023-07-23T08:44:28.489Z,7.22
2023-07-23T08:47:07.806Z,6.80
2023-07-23T08:49:34.562Z,6.70
2023-07-23T08:52:01.312Z,6.95
2023-07-23T08:54:28.056Z,6.55
2023-07-23T08:56:55.691Z,6.80
2023-07-23T08:59:22.407Z,7.20
2023-07-23T09:01:49.142Z,6.33
2023-07-23T09:04:16.229Z,6.43
2023-07-23T09:06:44.275Z,6.55
2023-07-23T09:09:12.467Z,6.30
2023-07-23T09:11:39.192Z,6.40
2023-07-23T09:14:10.872Z,6.53
2023-07-23T09:16:45.398Z,6.22
2023-07-23T09:19:13.363Z,6.32
2023-07-23T09:21:41.623Z,6.70
2023-07-23T09:24:10.771Z,6.22
2023-07-23T09:26:37.851Z,5.87
2023-07-23T09:29:08.665Z,5.78
2023-07-23T09:31:35.696Z,5.20
2023-07-23T09:34:02.958Z,5.50
2023-07-23T09:36:30.069Z,6.00
2023-07-23T09:39:01.020Z,6.13
2023-07-23T09:41:30.663Z,6.32
2023-07-23T09:44:08.396Z,5.63
2023-07-23T09:46:35.358Z,5.63
2023-07-23T09:49:02.228Z,5.65
2023-07-23T09:51:29.188Z,5.60
2023-07-23T09:53:56.297Z,6.20
2023-07-23T09:56:23.928Z,6.50
2023-07-23T09:58:51.731Z,6.43
2023-07-23T10:01:19.192Z,5.53
2023-07-23T10:03:46.342Z,5.60
2023-07-23T10:06:13.425Z,5.35
2023-07-23T10:08:41.629Z,5.40
2023-07-23T10:11:08.844Z,5.70
2023-07-23T10:13:36.224Z,5.80
2023-07-23T10:16:04.371Z,6.33
2023-07-23T10:18:31.170Z,6.13
2023-07-23T10:20:57.899Z,6.18
2023-07-23T10:23:24.654Z,4.72
2023-07-23T10:25:52.243Z,5.20
2023-07-23T10:28:23.463Z,5.77
2023-07-23T10:31:19.184Z,5.20
2023-07-23T10:33:46.964Z,4.10
2023-07-23T10:36:13.725Z,4.50
2023-07-23T10:38:40.583Z,4.20
2023-07-23T10:41:08.344Z,4.53
2023-07-23T10:43:39.752Z,5.35
2023-07-23T10:46:11.297Z,4.72
2023-07-23T10:48:56.520Z,5.47
2023-07-23T10:51:24.792Z,4.85
2023-07-23T10:54:04.256Z,5.60
2023-07-23T10:56:37.813Z,4.78
2023-07-23T10:59:07.333Z,4.80
2023-07-23T11:01:37.113Z,4.22
2023-07-23T11:04:11.562Z,4.93
2023-07-23T11:06:38.534Z,4.40
2023-07-23T11:09:06.364Z,3.63
2023-07-23T11:11:41.482Z,4.10
2023-07-23T11:14:21.534Z,4.00
2023-07-23T11:16:49.280Z,4.70
2023-07-23T11:19:17.782Z,4.60
2023-07-23T11:21:46.270Z,4.28
2023-07-23T11:24:13.080Z,4.30
2023-07-23T11:26:40.914Z,4.53
2023-07-23T11:29:07.950Z,4.72
2023-07-23T11:31:35.246Z,4.53
2023-07-23T11:34:02.315Z,4.68
2023-07-23T11:36:29.317Z,4.78
2023-07-23T11:38:56.624Z,4.68
2023-07-23T11:41:38.981Z,4.30
2023-07-23T11:44:06.391Z,4.93
2023-07-23T11:46:34.426Z,4.32
2023-07-23T11:49:02.153Z,4.72
2023-07-23T11:51:30.165Z,4.88
2023-07-23T11:54:14.767Z,5.28
2023-07-23T11:56:46.266Z,4.77
2023-07-23T11:59:17.754Z,4.53
2023-07-23T12:01:45.473Z,5.63
2023-07-23T12:04:12.290Z,4.47
2023-07-23T12:06:40.020Z,3.85
2023-07-23T12:09:08.437Z,4.53
2023-07-23T12:11:35.935Z,4.50
2023-07-23T12:14:08.024Z,4.55
2023-07-23T12:16:53.537Z,4.47
2023-07-23T12:19:21.247Z,4.82
2023-07-23T12:21:53.056Z,4.97
2023-07-23T12:24:20.739Z,5.07
2023-07-23T12:26:50.145Z,4.97
2023-07-23T12:29:17.369Z,5.72
2023-07-23T12:31:46.900Z,5.68
2023-07-23T12:34:14.322Z,5.40
2023-07-23T12:36:41.228Z,5.43
2023-07-23T12:39:09.280Z,5.57
2023-07-23T12:41:36.408Z,6.10
2023-07-23T12:44:03.554Z,5.90
2023-07-23T12:46:30.983Z,5.90
2023-07-23T12:48:58.303Z,5.78
2023-07-23T12:51:25.380Z,5.22
2023-07-23T12:53:52.615Z,5.45
2023-07-23T12:56:19.389Z,5.00
2023-07-23T12:58:46.172Z,5.27
2023-07-23T13:01:12.923Z,5.05
2023-07-23T13:03:39.726Z,4.85
2023-07-23T13:06:06.542Z,5.13
2023-07-23T13:08:33.313Z,4.85
2023-07-23T13:11:00.209Z,4.80
2023-07-23T13:13:27.250Z,5.05
2023-07-23T13:15:54.004Z,4.50
2023-07-23T13:18:20.963Z,4.75
2023-07-23T13:20:47.756Z,4.78
2023-07-23T13:23:14.536Z,5.03
2023-07-23T13:25:41.316Z,4.82
2023-07-23T13:28:08.087Z,4.32
2023-07-23T13:30:35.005Z,4.97
2023-07-23T13:33:01.828Z,4.70
2023-07-23T13:35:29.671Z,4.83
2023-07-23T13:37:56.467Z,4.70
2023-07-23T13:40:23.583Z,4.47
2023-07-23T13:42:50.391Z,4.28
2023-07-23T13:45:17.176Z,4.47
2023-07-23T13:47:44.102Z,4.30
2023-07-23T13:50:10.953Z,4.63
2023-07-23T13:52:37.653Z,4.47
2023-07-23T13:55:04.815Z,4.18
2023-07-23T13:57:32.004Z,4.43
2023-07-23T13:59:58.807Z,4.57
2023-07-23T14:02:26.359Z,4.35
2023-07-23T14:04:53.303Z,4.32
2023-07-23T14:07:20.109Z,4.40
2023-07-23T14:09:46.872Z,5.18
2023-07-23T14:12:13.681Z,4.40
2023-07-23T14:14:40.445Z,4.60
2023-07-23T14:17:07.355Z,4.63
2023-07-23T14:19:34.299Z,4.63
2023-07-23T14:22:01.272Z,5.40
2023-07-23T14:24:28.040Z,6.10
2023-07-23T14:26:54.850Z,5.50
2023-07-23T14:29:21.609Z,5.55
2023-07-23T14:31:48.331Z,4.97
2023-07-23T14:34:15.090Z,5.10
2023-07-23T14:36:41.808Z,5.50
2023-07-23T14:39:08.598Z,5.10
2023-07-23T14:41:35.350Z,4.60
2023-07-23T14:44:02.161Z,4.82
2023-07-23T14:46:28.969Z,5.20
2023-07-23T14:48:55.862Z,5.00
2023-07-23T14:51:22.617Z,5.10
2023-07-23T14:53:51.003Z,5.22
2023-07-23T14:56:18.205Z,5.53
2023-07-23T14:58:45.126Z,5.75
2023-07-23T15:01:11.899Z,5.43
2023-07-23T15:03:39.014Z,5.60
2023-07-23T15:06:05.980Z,6.07
2023-07-23T15:08:32.734Z,5.45
2023-07-23T15:10:59.507Z,6.10
2023-07-23T15:13:26.611Z,5.77
2023-07-23T15:15:53.674Z,5.72
2023-07-23T15:18:20.705Z,5.82
2023-07-23T15:20:47.711Z,5.65
2023-07-23T15:23:14.691Z,5.75
2023-07-23T15:25:41.794Z,5.57
2023-07-23T15:28:08.581Z,5.43
2023-07-23T15:30:35.372Z,5.40
2023-07-23T15:33:02.224Z,5.68
2023-07-23T15:35:29.734Z,5.70
2023-07-23T15:37:56.492Z,5.60
2023-07-23T15:40:23.272Z,5.50
2023-07-23T15:42:50.012Z,5.65
2023-07-23T15:45:16.780Z,5.43
2023-07-23T15:47:43.616Z,5.57
2023-07-23T15:50:10.631Z,5.43
2023-07-23T15:52:37.419Z,6.07
2023-07-23T15:55:04.288Z,5.97
2023-07-23T15:57:31.068Z,5.43
2023-07-23T15:59:57.860Z,5.78
2023-07-23T16:02:24.664Z,6.00
2023-07-23T16:04:51.435Z,5.55
2023-07-23T16:07:18.161Z,6.20
2023-07-23T16:09:44.914Z,6.13
2023-07-23T16:12:11.726Z,5.47
2023-07-23T16:14:38.405Z,5.63
2023-07-23T16:17:05.268Z,6.45
2023-07-23T16:19:32.017Z,5.93
2023-07-23T16:21:58.778Z,5.68
2023-07-23T16:24:25.569Z,5.78
2023-07-23T16:26:53.860Z,5.40
2023-07-23T16:29:20.650Z,5.90
2023-07-23T16:31:47.648Z,5.75
2023-07-23T16:34:14.718Z,5.38
2023-07-23T16:36:42.004Z,5.88
2023-07-23T16:39:08.833Z,5.77
2023-07-23T16:41:35.561Z,5.88
2023-07-23T16:44:02.360Z,5.63
2023-07-23T16:46:29.289Z,5.80
2023-07-23T16:48:56.002Z,5.53
2023-07-23T16:51:22.818Z,5.87
2023-07-23T16:53:49.598Z,5.70
2023-07-23T16:56:16.398Z,5.70
2023-07-23T16:58:43.260Z,5.82
2023-07-23T17:01:10.053Z,5.85
2023-07-23T17:03:36.844Z,6.00
2023-07-23T17:06:03.609Z,6.22
2023-07-23T17:08:30.396Z,6.40
2023-07-23T17:10:57.243Z,6.47
2023-07-23T17:13:24.691Z,6.15
2023-07-23T17:15:51.485Z,6.63
2023-07-23T17:18:18.252Z,6.93
2023-07-23T17:20:48.222Z,6.80
2023-07-23T17:23:16.406Z,6.63
2023-07-23T17:25:43.639Z,6.82
2023-07-23T17:28:10.769Z,6.50
2023-07-23T17:30:38.630Z,6.90
2023-07-23T17:33:05.774Z,7.22
2023-07-23T17:35:32.727Z,7.28
2023-07-23T17:37:59.495Z,7.45
2023-07-23T17:40:26.319Z,7.67
2023-07-23T17:42:53.165Z,8.63
2023-07-23T17:45:20.018Z,9.18
2023-07-23T17:47:46.891Z,8.38
2023-07-23T17:50:15.418Z,8.15
2023-07-23T17:52:42.457Z,8.27
2023-07-23T17:55:09.396Z,7.80
2023-07-23T17:57:36.228Z,7.82
2023-07-23T18:00:03.430Z,7.82
2023-07-23T18:02:30.336Z,8.35
2023-07-23T18:04:57.130Z,7.90
2023-07-23T18:07:23.999Z,8.20
2023-07-23T18:09:50.842Z,8.07
2023-07-23T18:12:17.663Z,8.88
2023-07-23T18:14:44.437Z,11.75
2023-07-23T18:17:11.236Z,11.50
2023-07-23T18:19:38.033Z,11.38
2023-07-23T18:22:05.132Z,10.32
2023-07-23T18:24:31.956Z,10.20
2023-07-23T18:26:58.853Z,10.05
2023-07-23T18:29:28.745Z,9.57
2023-07-23T18:31:55.640Z,8.88
2023-07-23T18:34:22.727Z,8.35
2023-07-23T18:36:49.487Z,9.45
2023-07-23T18:39:16.354Z,10.43
2023-07-23T18:41:43.102Z,10.87
2023-07-23T18:44:10.769Z,12.27
2023-07-23T18:46:37.650Z,11.40
2023-07-23T18:49:05.347Z,11.10
2023-07-23T18:51:32.106Z,10.63
2023-07-23T18:53:59.072Z,10.27
2023-07-23T18:56:25.930Z,10.25
2023-07-23T18:58:52.867Z,8.98
2023-07-23T19:01:19.697Z,9.10
2023-07-23T19:03:49.870Z,9.80
2023-07-23T19:06:16.850Z,9.90
2023-07-23T19:08:44.964Z,9.88
2023-07-23T19:11:11.703Z,9.60
2023-07-23T19:13:38.402Z,10.50
2023-07-23T19:16:06.802Z,10.98
2023-07-23T19:18:37.205Z,11.47
2023-07-23T19:21:04.344Z,11.43
2023-07-23T19:23:31.088Z,11.07
2023-07-23T19:25:57.861Z,11.32
2023-07-23T19:28:24.631Z,11.98
2023-07-23T19:30:54.401Z,11.70
2023-07-23T19:33:21.204Z,12.25
2023-07-23T19:35:48.001Z,11.73
2023-07-23T19:38:14.768Z,12.25
2023-07-23T19:40:41.463Z,13.20
2023-07-23T19:43:08.270Z,12.73
2023-07-23T19:45:34.986Z,13.15
2023-07-23T19:48:02.945Z,12.70
2023-07-23T19:50:29.763Z,12.85
2023-07-23T19:52:56.510Z,12.98
2023-07-23T19:55:23.505Z,12.23
2023-07-23T19:57:50.665Z,12.90
2023-07-23T20:00:17.466Z,12.30
2023-07-23T20:02:44.249Z,12.50
2023-07-23T20:05:11.202Z,13.02
2023-07-23T20:07:38.007Z,13.33
2023-07-23T20:10:05.419Z,13.80
2023-07-23T20:12:32.169Z,13.30
2023-07-23T20:14:58.904Z,12.73
2023-07-23T20:17:25.742Z,12.70
2023-07-23T20:19:52.480Z,13.17
2023-07-23T20:22:19.222Z,12.65
2023-07-23T20:24:48.339Z,12.50
2023-07-23T20:27:15.479Z,12.10
2023-07-23T20:29:42.481Z,12.50
2023-07-23T20:32:09.982Z,12.27
2023-07-23T20:34:37.008Z,12.30
2023-07-23T20:37:04.108Z,11.88
2023-07-23T20:39:31.107Z,13.02
2023-07-23T20:41:58.367Z,12.52
2023-07-23T20:44:25.057Z,12.40
2023-07-23T20:46:51.779Z,12.35
2023-07-23T20:49:18.521Z,12.68
2023-07-23T20:51:45.286Z,12.43
2023-07-23T20:54:12.536Z,12.48
2023-07-23T20:56:39.406Z,12.70
2023-07-23T20:59:06.115Z,13.65
2023-07-23T21:01:32.801Z,12.90
2023-07-23T21:03:59.626Z,13.23
2023-07-23T21:06:26.462Z,13.52
2023-07-23T21:08:53.228Z,13.40
2023-07-23T21:11:19.973Z,13.85
2023-07-23T21:13:46.787Z,13.75
2023-07-23T21:16:13.515Z,13.80
2023-07-23T21:18:40.284Z,14.02
2023-07-23T21:21:07.057Z,13.43
2023-07-23T21:23:33.909Z,13.77
2023-07-23T21:26:00.648Z,13.73
2023-07-23T21:28:27.387Z,13.52
2023-07-23T21:30:55.317Z,13.27
2023-07-23T21:33:22.182Z,13.37
2023-07-23T21:35:48.936Z,12.85
2023-07-23T21:38:16.242Z,12.77
2023-07-23T21:40:42.966Z,13.38
2023-07-23T21:43:09.733Z,13.65
2023-07-23T21:45:36.503Z,13.50
2023-07-23T21:48:03.337Z,13.38
2023-07-23T21:50:30.094Z,12.38
2023-07-23T21:52:56.907Z,13.07
2023-07-23T21:55:23.625Z,13.10
2023-07-23T21:57:50.364Z,12.33
2023-07-23T22:00:17.521Z,12.88
2023-07-23T22:02:44.434Z,12.38
2023-07-23T22:05:11.528Z,12.38
2023-07-23T22:07:38.615Z,13.20
2023-07-23T22:10:08.155Z,12.40
2023-07-23T22:12:35.731Z,11.85
2023-07-23T22:15:02.778Z,13.00
2023-07-23T22:17:29.612Z,12.55
2023-07-23T22:19:56.421Z,12.77
2023-07-23T22:22:24.102Z,12.87
2023-07-23T22:24:51.256Z,12.57
2023-07-23T22:27:18.065Z,12.70
2023-07-23T22:29:44.795Z,12.43
2023-07-23T22:32:11.561Z,13.52
2023-07-23T22:34:38.401Z,13.50
2023-07-23T22:37:05.535Z,13.38
2023-07-23T22:39:32.291Z,12.70
2023-07-23T22:41:59.139Z,13.52
2023-07-23T22:44:26.053Z,12.38
2023-07-23T22:46:54.444Z,12.30
2023-07-23T22:49:21.244Z,13.00
2023-07-23T22:51:47.982Z,13.07
2023-07-23T22:54:14.766Z,13.00
2023-07-23T22:56:41.606Z,12.43
2023-07-23T22:59:08.365Z,11.80
2023-07-23T23:01:35.138Z,12.38
2023-07-23T23:04:01.993Z,13.60
2023-07-23T23:06:29.002Z,13.25
2023-07-23T23:08:56.514Z,13.57
2023-07-23T23:11:23.236Z,13.17
2023-07-23T23:13:49.977Z,13.30
2023-07-23T23:16:16.800Z,12.93
2023-07-23T23:18:43.555Z,12.20
2023-07-23T23:21:10.356Z,12.57
2023-07-23T23:23:37.077Z,13.00
2023-07-23T23:26:04.092Z,13.32
2023-07-23T23:28:30.811Z,14.13
2023-07-23T23:30:57.596Z,13.48
2023-07-23T23:33:24.321Z,14.07
2023-07-23T23:35:56.078Z,13.37
2023-07-23T23:38:23.443Z,14.07
2023-07-23T23:40:50.568Z,12.75
2023-07-23T23:43:17.326Z,13.68
2023-07-23T23:45:44.118Z,13.32
2023-07-23T23:48:10.964Z,14.03
2023-07-23T23:50:38.171Z,13.63
2023-07-23T23:53:05.002Z,12.98
2023-07-23T23:55:31.777Z,12.52
2023-07-23T23:57:58.610Z,11.55
